sensor_id;sensor_type;location;lat;lon;timestamp;pressure;altitude;pressure_sealevel;temperature;humidity
80733;BME280;70130;44.534;18.678;2024-01-15T00:00:48;98070.53;;;-3.13;100.00
80733;BME280;70130;44.534;18.678;2024-01-15T00:03:17;98056.88;;;-3.15;100.00
80733;BME280;70130;44.534;18.678;2024-01-15T00:05:43;98063.72;;;-3.04;100.00
80733;BME280;70130;44.534;18.678;2024-01-15T00:08:18;98057.69;;;-3.10;100.00
80733;BME280;70130;44.534;18.678;2024-01-15T00:10:46;98065.56;;;-3.10;100.00
80733;BME280;70130;44.534;18.678;2024-01-15T00:13:12;98034.28;;;-3.26;100.00
80733;BME280;70130;44.534;18.678;2024-01-15T00:15:53;98040.81;;;-3.29;100.00
80733;BME280;70130;44.534;18.678;2024-01-15T00:18:18;98057.41;;;-3.18;100.00
80733;BME280;70130;44.534;18.678;2024-01-15T00:20:47;98052.66;;;-3.26;100.00
80733;BME280;70130;44.534;18.678;2024-01-15T00:23:28;98062.63;;;-3.18;100.00
80733;BME280;70130;44.534;18.678;2024-01-15T00:25:53;98034.25;;;-3.36;100.00
80733;BME280;70130;44.534;18.678;2024-01-15T00:28:21;98044.75;;;-3.36;100.00
80733;BME280;70130;44.534;18.678;2024-01-15T00:30:47;98039.75;;;-3.33;100.00
80733;BME280;70130;44.534;18.678;2024-01-15T00:33:16;98030.28;;;-3.39;100.00
80733;BME280;70130;44.534;18.678;2024-01-15T00:35:41;98048.97;;;-3.20;100.00
80733;BME280;70130;44.534;18.678;2024-01-15T00:38:07;98040.84;;;-3.19;100.00
80733;BME280;70130;44.534;18.678;2024-01-15T00:40:45;98037.72;;;-3.16;100.00
80733;BME280;70130;44.534;18.678;2024-01-15T00:43:16;98042.19;;;-3.16;100.00
80733;BME280;70130;44.534;18.678;2024-01-15T00:45:47;98040.84;;;-3.19;100.00
80733;BME280;70130;44.534;18.678;2024-01-15T00:48:12;98027.19;;;-3.31;100.00
80733;BME280;70130;44.534;18.678;2024-01-15T00:50:38;98029.56;;;-3.24;100.00
80733;BME280;70130;44.534;18.678;2024-01-15T00:53:03;98022.72;;;-3.25;100.00
80733;BME280;70130;44.534;18.678;2024-01-15T00:58:41;97995.69;;;-3.41;100.00
80733;BME280;70130;44.534;18.678;2024-01-15T01:01:07;98007.75;;;-3.30;100.00
80733;BME280;70130;44.534;18.678;2024-01-15T01:03:32;97993.84;;;-3.35;100.00
80733;BME280;70130;44.534;18.678;2024-01-15T01:06:16;97990.16;;;-3.39;100.00
80733;BME280;70130;44.534;18.678;2024-01-15T01:08:45;97990.44;;;-3.41;100.00
80733;BME280;70130;44.534;18.678;2024-01-15T01:11:14;97986.50;;;-3.33;100.00
80733;BME280;70130;44.534;18.678;2024-01-15T01:13:40;97996.50;;;-3.20;100.00
80733;BME280;70130;44.534;18.678;2024-01-15T01:16:05;97991.00;;;-3.24;100.00
80733;BME280;70130;44.534;18.678;2024-01-15T01:18:31;97994.94;;;-3.26;100.00
80733;BME280;70130;44.534;18.678;2024-01-15T01:20:56;97991.25;;;-3.25;100.00
80733;BME280;70130;44.534;18.678;2024-01-15T01:23:28;97967.59;;;-3.35;100.00
80733;BME280;70130;44.534;18.678;2024-01-15T01:25:59;97967.91;;;-3.32;100.00
80733;BME280;70130;44.534;18.678;2024-01-15T01:28:31;97960.25;;;-3.38;100.00
80733;BME280;70130;44.534;18.678;2024-01-15T01:31:09;97980.75;;;-3.20;100.00
80733;BME280;70130;44.534;18.678;2024-01-15T01:33:40;97967.13;;;-3.27;100.00
80733;BME280;70130;44.534;18.678;2024-01-15T01:36:18;97957.66;;;-3.28;100.00
80733;BME280;70130;44.534;18.678;2024-01-15T01:38:44;97941.38;;;-3.40;100.00
80733;BME280;70130;44.534;18.678;2024-01-15T01:41:13;97942.97;;;-3.34;100.00
80733;BME280;70130;44.534;18.678;2024-01-15T01:43:38;97955.81;;;-3.33;100.00
80733;BME280;70130;44.534;18.678;2024-01-15T01:46:05;97943.25;;;-3.31;100.00
80733;BME280;70130;44.534;18.678;2024-01-15T01:48:49;97933.53;;;-3.40;100.00
80733;BME280;70130;44.534;18.678;2024-01-15T01:51:26;97944.00;;;-3.40;100.00
80733;BME280;70130;44.534;18.678;2024-01-15T01:54:11;97937.72;;;-3.34;100.00
80733;BME280;70130;44.534;18.678;2024-01-15T01:56:48;97941.94;;;-3.28;100.00
80733;BME280;70130;44.534;18.678;2024-01-15T01:59:18;97925.94;;;-3.27;100.00
80733;BME280;70130;44.534;18.678;2024-01-15T02:01:44;97916.47;;;-3.28;100.00
80733;BME280;70130;44.534;18.678;2024-01-15T02:04:11;97901.00;;;-3.24;100.00
80733;BME280;70130;44.534;18.678;2024-01-15T02:06:40;97908.34;;;-3.26;100.00
80733;BME280;70130;44.534;18.678;2024-01-15T02:09:05;97899.94;;;-3.28;100.00
80733;BME280;70130;44.534;18.678;2024-01-15T02:11:31;97884.22;;;-3.28;100.00
80733;BME280;70130;44.534;18.678;2024-01-15T02:14:09;97909.41;;;-3.17;100.00
80733;BME280;70130;44.534;18.678;2024-01-15T02:16:38;97904.19;;;-3.12;100.00
80733;BME280;70130;44.534;18.678;2024-01-15T02:19:04;97900.50;;;-3.16;100.00
80733;BME280;70130;44.534;18.678;2024-01-15T02:21:31;97885.25;;;-3.14;100.00
80733;BME280;70130;44.534;18.678;2024-01-15T02:24:00;97884.47;;;-3.15;100.00
80733;BME280;70130;44.534;18.678;2024-01-15T02:26:31;97872.13;;;-3.24;100.00
80733;BME280;70130;44.534;18.678;2024-01-15T02:29:01;97879.22;;;-3.35;100.00
80733;BME280;70130;44.534;18.678;2024-01-15T02:31:27;97864.81;;;-3.27;100.00
80733;BME280;70130;44.534;18.678;2024-01-15T02:33:52;97860.59;;;-3.23;100.00
80733;BME280;70130;44.534;18.678;2024-01-15T02:36:18;97861.66;;;-3.19;100.00
80733;BME280;70130;44.534;18.678;2024-01-15T02:38:47;97858.53;;;-3.16;100.00
80733;BME280;70130;44.534;18.678;2024-01-15T02:41:12;97853.78;;;-3.19;100.00
80733;BME280;70130;44.534;18.678;2024-01-15T02:46:51;97838.81;;;-3.24;100.00
80733;BME280;70130;44.534;18.678;2024-01-15T02:49:16;97830.69;;;-3.27;100.00
80733;BME280;70130;44.534;18.678;2024-01-15T02:51:48;97823.34;;;-3.25;100.00
80733;BME280;70130;44.534;18.678;2024-01-15T02:54:32;97828.34;;;-3.24;100.00
80733;BME280;70130;44.534;18.678;2024-01-15T02:57:00;97823.34;;;-3.25;100.00
80733;BME280;70130;44.534;18.678;2024-01-15T02:59:26;97823.34;;;-3.25;100.00
80733;BME280;70130;44.534;18.678;2024-01-15T03:01:51;97812.59;;;-3.29;100.00
80733;BME280;70130;44.534;18.678;2024-01-15T03:04:26;97821.25;;;-3.23;100.00
80733;BME280;70130;44.534;18.678;2024-01-15T03:06:51;97811.53;;;-3.28;100.00
80733;BME280;70130;44.534;18.678;2024-01-15T03:09:23;97812.34;;;-3.22;100.00
80733;BME280;70130;44.534;18.678;2024-01-15T03:12:00;97809.44;;;-3.16;100.00
80733;BME280;70130;44.534;18.678;2024-01-15T03:14:44;97783.47;;;-3.27;100.00
80733;BME280;70130;44.534;18.678;2024-01-15T03:17:13;97789.75;;;-3.18;100.00
80733;BME280;70130;44.534;18.678;2024-01-15T03:19:38;97784.75;;;-3.15;100.00
80733;BME280;70130;44.534;18.678;2024-01-15T03:22:17;97802.88;;;-3.03;100.00
80733;BME280;70130;44.534;18.678;2024-01-15T03:24:46;97779.28;;;-3.23;100.00
80733;BME280;70130;44.534;18.678;2024-01-15T03:27:11;97802.34;;;-3.15;100.00
80733;BME280;70130;44.534;18.678;2024-01-15T03:29:55;97799.72;;;-3.10;100.00
80733;BME280;70130;44.534;18.678;2024-01-15T03:32:23;97801.53;;;-3.06;100.00
80733;BME280;70130;44.534;18.678;2024-01-15T03:34:49;97782.41;;;-3.06;100.00
80733;BME280;70130;44.534;18.678;2024-01-15T03:37:26;97755.91;;;-3.20;100.00
80733;BME280;70130;44.534;18.678;2024-01-15T03:39:55;97781.63;;;-3.01;100.00
80733;BME280;70130;44.534;18.678;2024-01-15T03:42:21;97757.75;;;-3.15;100.00
80733;BME280;70130;44.534;18.678;2024-01-15T03:44:46;97766.41;;;-3.10;100.00
80733;BME280;70130;44.534;18.678;2024-01-15T03:47:15;97762.72;;;-3.09;100.00
80733;BME280;70130;44.534;18.678;2024-01-15T03:49:40;97760.09;;;-3.03;100.00
80733;BME280;70130;44.534;18.678;2024-01-15T03:52:24;97769.53;;;-2.97;100.00
80733;BME280;70130;44.534;18.678;2024-01-15T03:54:52;97724.41;;;-3.10;100.00
80733;BME280;70130;44.534;18.678;2024-01-15T03:57:24;97749.31;;;-2.97;100.00
80733;BME280;70130;44.534;18.678;2024-01-15T03:59:53;97760.84;;;-2.93;100.00
80733;BME280;70130;44.534;18.678;2024-01-15T04:02:18;97755.63;;;-2.98;100.00
80733;BME280;70130;44.534;18.678;2024-01-15T04:04:56;97747.19;;;-2.95;100.00
80733;BME280;70130;44.534;18.678;2024-01-15T04:07:25;97746.13;;;-2.84;100.00
80733;BME280;70130;44.534;18.678;2024-01-15T04:09:50;97739.84;;;-2.83;100.00
80733;BME280;70130;44.534;18.678;2024-01-15T04:12:16;97737.72;;;-2.81;100.00
80733;BME280;70130;44.534;18.678;2024-01-15T04:14:44;97717.28;;;-2.89;100.00
80733;BME280;70130;44.534;18.678;2024-01-15T04:17:10;97730.09;;;-2.77;100.00
80733;BME280;70130;44.534;18.678;2024-01-15T04:19:38;97734.56;;;-2.78;100.00
80733;BME280;70130;44.534;18.678;2024-01-15T04:22:16;97713.59;;;-2.83;100.00
80733;BME280;70130;44.534;18.678;2024-01-15T04:24:45;97685.31;;;-3.01;100.00
80733;BME280;70130;44.534;18.678;2024-01-15T04:27:10;97707.53;;;-2.78;100.00
80733;BME280;70130;44.534;18.678;2024-01-15T04:29:48;97708.31;;;-2.78;100.00
80733;BME280;70130;44.534;18.678;2024-01-15T04:32:16;97711.97;;;-2.74;100.00
80733;BME280;70130;44.534;18.678;2024-01-15T04:34:42;97711.72;;;-2.77;100.00
80733;BME280;70130;44.534;18.678;2024-01-15T04:37:20;97699.09;;;-2.75;100.00
80733;BME280;70130;44.534;18.678;2024-01-15T04:39:48;97689.69;;;-2.81;100.00
80733;BME280;70130;44.534;18.678;2024-01-15T04:42:14;97693.53;;;-2.64;100.00
80733;BME280;70130;44.534;18.678;2024-01-15T04:44:39;97686.22;;;-2.67;100.00
80733;BME280;70130;44.534;18.678;2024-01-15T04:50:29;97667.84;;;-2.72;100.00
80733;BME280;70130;44.534;18.678;2024-01-15T04:52:55;97689.81;;;-2.52;100.00
80733;BME280;70130;44.534;18.678;2024-01-15T04:55:20;97669.94;;;-2.69;100.00
80733;BME280;70130;44.534;18.678;2024-01-15T04:58:04;97669.66;;;-2.62;100.00
80733;BME280;70130;44.534;18.678;2024-01-15T05:00:36;97694.78;;;-2.51;100.00
80733;BME280;70130;44.534;18.678;2024-01-15T05:03:07;97680.38;;;-2.53;100.00
80733;BME280;70130;44.534;18.678;2024-01-15T05:05:36;97676.69;;;-2.52;100.00
80733;BME280;70130;44.534;18.678;2024-01-15T05:08:02;97683.44;;;-2.41;100.00
80733;BME280;70130;44.534;18.678;2024-01-15T05:10:27;97664.84;;;-2.50;100.00
80733;BME280;70130;44.534;18.678;2024-01-15T05:12:53;97671.91;;;-2.45;100.00
80733;BME280;70130;44.534;18.678;2024-01-15T05:15:24;97663.25;;;-2.51;100.00
80733;BME280;70130;44.534;18.678;2024-01-15T05:18:02;97658.78;;;-2.45;100.00
80733;BME280;70130;44.534;18.678;2024-01-15T05:20:28;97658.50;;;-2.44;100.00
80733;BME280;70130;44.534;18.678;2024-01-15T05:23:24;97658.97;;;-2.37;100.00
80733;BME280;70130;44.534;18.678;2024-01-15T05:25:53;97635.94;;;-2.50;100.00
80733;BME280;70130;44.534;18.678;2024-01-15T05:28:18;97654.75;;;-2.33;100.00
80733;BME280;70130;44.534;18.678;2024-01-15T05:30:44;97649.56;;;-2.43;100.00
80733;BME280;70130;44.534;18.678;2024-01-15T05:33:09;97651.84;;;-2.31;100.00
80733;BME280;70130;44.534;18.678;2024-01-15T05:35:35;97633.00;;;-2.38;100.00
80733;BME280;70130;44.534;18.678;2024-01-15T05:38:00;97632.69;;;-2.37;100.00
80733;BME280;70130;44.534;18.678;2024-01-15T05:40:51;97652.09;;;-2.28;100.00
80733;BME280;70130;44.534;18.678;2024-01-15T05:43:19;97652.97;;;-2.37;100.00
80733;BME280;70130;44.534;18.678;2024-01-15T05:45:45;97649.75;;;-2.29;100.00
80733;BME280;70130;44.534;18.678;2024-01-15T05:48:11;97657.78;;;-2.15;100.00
80733;BME280;70130;44.534;18.678;2024-01-15T05:50:49;97654.84;;;-2.09;100.00
80733;BME280;70130;44.534;18.678;2024-01-15T05:53:27;97656.34;;;-1.98;100.00
80733;BME280;70130;44.534;18.678;2024-01-15T05:59:38;97640.81;;;-1.94;100.00
80733;BME280;70130;44.534;18.678;2024-01-15T06:02:22;97619.31;;;-2.01;100.00
80733;BME280;70130;44.534;18.678;2024-01-15T06:04:48;97639.16;;;-1.85;100.00
80733;BME280;70130;44.534;18.678;2024-01-15T06:07:13;97638.59;;;-1.82;100.00
80733;BME280;70130;44.534;18.678;2024-01-15T06:09:57;97634.63;;;-1.80;100.00
80733;BME280;70130;44.534;18.678;2024-01-15T06:12:35;97615.75;;;-1.87;100.00
80733;BME280;70130;44.534;18.678;2024-01-15T06:15:07;97628.22;;;-1.68;100.00
80733;BME280;70130;44.534;18.678;2024-01-15T06:17:38;97621.94;;;-1.73;100.00
80733;BME280;70130;44.534;18.678;2024-01-15T06:20:05;97618.94;;;-1.61;100.00
80733;BME280;70130;44.534;18.678;2024-01-15T06:22:30;97611.22;;;-1.52;100.00
80733;BME280;70130;44.534;18.678;2024-01-15T06:24:57;97604.41;;;-1.53;100.00
80733;BME280;70130;44.534;18.678;2024-01-15T06:27:23;97613.84;;;-1.52;100.00
80733;BME280;70130;44.534;18.678;2024-01-15T06:29:49;97611.53;;;-1.54;100.00
80733;BME280;70130;44.534;18.678;2024-01-15T06:32:15;97602.88;;;-1.59;100.00
80733;BME280;70130;44.534;18.678;2024-01-15T06:34:41;97608.09;;;-1.54;100.00
80733;BME280;70130;44.534;18.678;2024-01-15T06:37:07;97597.63;;;-1.59;100.00
80733;BME280;70130;44.534;18.678;2024-01-15T06:39:32;97603.84;;;-1.50;100.00
80733;BME280;70130;44.534;18.678;2024-01-15T06:41:58;97597.47;;;-1.44;100.00
80733;BME280;70130;44.534;18.678;2024-01-15T06:44:23;97574.91;;;-1.50;100.00
80733;BME280;70130;44.534;18.678;2024-01-15T06:46:49;97592.16;;;-1.39;100.00
80733;BME280;70130;44.534;18.678;2024-01-15T06:49:15;97599.47;;;-1.36;100.00
80733;BME280;70130;44.534;18.678;2024-01-15T06:51:41;97587.44;;;-1.42;100.00
80733;BME280;70130;44.534;18.678;2024-01-15T06:54:07;97595.22;;;-1.32;100.00
80733;BME280;70130;44.534;18.678;2024-01-15T06:56:33;97592.97;;;-1.20;100.00
80733;BME280;70130;44.534;18.678;2024-01-15T06:58:58;97566.28;;;-1.32;100.00
80733;BME280;70130;44.534;18.678;2024-01-15T07:01:24;97594.78;;;-1.15;100.00
80733;BME280;70130;44.534;18.678;2024-01-15T07:03:50;97588.44;;;-1.14;100.00
80733;BME280;70130;44.534;18.678;2024-01-15T07:06:15;97587.66;;;-1.15;100.00
80733;BME280;70130;44.534;18.678;2024-01-15T07:08:42;97594.38;;;-1.04;100.00
80733;BME280;70130;44.534;18.678;2024-01-15T07:11:07;97556.63;;;-1.18;100.00
80733;BME280;70130;44.534;18.678;2024-01-15T07:13:34;97591.91;;;-0.95;100.00
80733;BME280;70130;44.534;18.678;2024-01-15T07:16:01;97586.91;;;-0.97;100.00
80733;BME280;70130;44.534;18.678;2024-01-15T07:18:26;97595.72;;;-0.88;100.00
80733;BME280;70130;44.534;18.678;2024-01-15T07:20:52;97564.25;;;-0.98;100.00
80733;BME280;70130;44.534;18.678;2024-01-15T07:23:18;97565.91;;;-0.83;100.00
80733;BME280;70130;44.534;18.678;2024-01-15T07:25:43;97575.53;;;-0.73;100.00
80733;BME280;70130;44.534;18.678;2024-01-15T07:28:09;97574.47;;;-0.72;100.00
80733;BME280;70130;44.534;18.678;2024-01-15T07:30:35;97573.59;;;-0.68;100.00
80733;BME280;70130;44.534;18.678;2024-01-15T07:33:01;97548.78;;;-0.80;100.00
80733;BME280;70130;44.534;18.678;2024-01-15T07:35:26;97574.97;;;-0.70;100.00
80733;BME280;70130;44.534;18.678;2024-01-15T07:37:52;97584.28;;;-0.59;100.00
80733;BME280;70130;44.534;18.678;2024-01-15T07:40:17;97582.66;;;-0.55;100.00
80733;BME280;70130;44.534;18.678;2024-01-15T07:42:43;97575.75;;;-0.51;100.00
80733;BME280;70130;44.534;18.678;2024-01-15T07:45:10;97563.69;;;-0.57;100.00
80733;BME280;70130;44.534;18.678;2024-01-15T07:47:36;97564.41;;;-0.52;100.00
80733;BME280;70130;44.534;18.678;2024-01-15T07:50:01;97568.94;;;-0.38;100.00
80733;BME280;70130;44.534;18.678;2024-01-15T07:52:27;97570.44;;;-0.32;100.00
80733;BME280;70130;44.534;18.678;2024-01-15T07:54:52;97565.81;;;-0.22;100.00
80733;BME280;70130;44.534;18.678;2024-01-15T07:57:18;97556.03;;;-0.21;100.00
80733;BME280;70130;44.534;18.678;2024-01-15T07:59:44;97552.13;;;-0.24;100.00
80733;BME280;70130;44.534;18.678;2024-01-15T08:02:09;97537.66;;;-0.26;100.00
80733;BME280;70130;44.534;18.678;2024-01-15T08:04:37;97557.03;;;-0.17;100.00
80733;BME280;70130;44.534;18.678;2024-01-15T08:07:03;97561.72;;;-0.14;100.00
80733;BME280;70130;44.534;18.678;2024-01-15T08:09:29;97543.50;;;-0.29;100.00
80733;BME280;70130;44.534;18.678;2024-01-15T08:11:55;97568.16;;;-0.20;100.00
80733;BME280;70130;44.534;18.678;2024-01-15T08:14:20;97558.75;;;-0.26;100.00
80733;BME280;70130;44.534;18.678;2024-01-15T08:16:46;97569.34;;;-0.13;100.00
80733;BME280;70130;44.534;18.678;2024-01-15T08:19:12;97546.38;;;-0.26;100.00
80733;BME280;70130;44.534;18.678;2024-01-15T08:21:37;97570.84;;;0.07;100.00
80733;BME280;70130;44.534;18.678;2024-01-15T08:24:04;97569.28;;;0.06;100.00
80733;BME280;70130;44.534;18.678;2024-01-15T08:26:30;97578.69;;;0.12;100.00
80733;BME280;70130;44.534;18.678;2024-01-15T08:28:58;97579.47;;;0.13;100.00
80733;BME280;70130;44.534;18.678;2024-01-15T08:31:24;97572.69;;;0.07;100.00
80733;BME280;70130;44.534;18.678;2024-01-15T08:33:49;97578.19;;;0.10;100.00
80733;BME280;70130;44.534;18.678;2024-01-15T08:36:15;97589.84;;;0.23;100.00
80733;BME280;70130;44.534;18.678;2024-01-15T08:38:41;97590.72;;;0.32;100.00
80733;BME280;70130;44.534;18.678;2024-01-15T08:41:06;97571.19;;;0.19;100.00
80733;BME280;70130;44.534;18.678;2024-01-15T08:43:34;97587.59;;;0.30;100.00
80733;BME280;70130;44.534;18.678;2024-01-15T08:45:59;97598.56;;;0.37;100.00
80733;BME280;70130;44.534;18.678;2024-01-15T08:48:26;97596.63;;;0.42;100.00
80733;BME280;70130;44.534;18.678;2024-01-15T08:50:55;97603.28;;;0.54;100.00
80733;BME280;70130;44.534;18.678;2024-01-15T08:53:20;97593.00;;;0.52;100.00
80733;BME280;70130;44.534;18.678;2024-01-15T08:55:47;97620.38;;;0.70;100.00
80733;BME280;70130;44.534;18.678;2024-01-15T08:58:15;97621.66;;;0.72;100.00
80733;BME280;70130;44.534;18.678;2024-01-15T09:00:41;97620.28;;;0.75;100.00
80733;BME280;70130;44.534;18.678;2024-01-15T09:03:07;97612.78;;;0.82;100.00
80733;BME280;70130;44.534;18.678;2024-01-15T09:05:35;97607.97;;;0.84;100.00
80733;BME280;70130;44.534;18.678;2024-01-15T09:08:03;97607.00;;;0.80;100.00
80733;BME280;70130;44.534;18.678;2024-01-15T09:10:29;97604.34;;;0.80;100.00
80733;BME280;70130;44.534;18.678;2024-01-15T09:12:54;97588.91;;;0.73;100.00
80733;BME280;70130;44.534;18.678;2024-01-15T09:15:20;97612.56;;;0.92;100.00
80733;BME280;70130;44.534;18.678;2024-01-15T09:17:45;97600.16;;;0.93;100.00
80733;BME280;70130;44.534;18.678;2024-01-15T09:20:11;97600.06;;;0.98;100.00
80733;BME280;70130;44.534;18.678;2024-01-15T09:22:40;97604.53;;;1.11;100.00
80733;BME280;70130;44.534;18.678;2024-01-15T09:25:10;97591.53;;;1.01;100.00
80733;BME280;70130;44.534;18.678;2024-01-15T09:27:37;97611.66;;;1.24;100.00
80733;BME280;70130;44.534;18.678;2024-01-15T09:30:04;97597.34;;;1.25;100.00
80733;BME280;70130;44.534;18.678;2024-01-15T09:32:30;97599.59;;;1.32;100.00
80733;BME280;70130;44.534;18.678;2024-01-15T09:34:56;97596.06;;;1.36;100.00
80733;BME280;70130;44.534;18.678;2024-01-15T09:37:21;97575.72;;;1.37;100.00
80733;BME280;70130;44.534;18.678;2024-01-15T09:39:47;97567.34;;;1.43;100.00
80733;BME280;70130;44.534;18.678;2024-01-15T09:42:14;97571.66;;;1.53;100.00
80733;BME280;70130;44.534;18.678;2024-01-15T09:44:40;97552.84;;;1.54;100.00
80733;BME280;70130;44.534;18.678;2024-01-15T09:47:07;97557.72;;;1.61;100.00
80733;BME280;70130;44.534;18.678;2024-01-15T09:49:33;97545.75;;;1.63;100.00
80733;BME280;70130;44.534;18.678;2024-01-15T09:51:59;97538.41;;;1.60;100.00
80733;BME280;70130;44.534;18.678;2024-01-15T09:54:26;97541.84;;;1.61;100.00
80733;BME280;70130;44.534;18.678;2024-01-15T09:56:52;97554.34;;;1.69;100.00
80733;BME280;70130;44.534;18.678;2024-01-15T09:59:19;97537.88;;;1.72;100.00
80733;BME280;70130;44.534;18.678;2024-01-15T10:01:46;97537.78;;;1.77;100.00
80733;BME280;70130;44.534;18.678;2024-01-15T10:04:15;97507.81;;;1.68;100.00
80733;BME280;70130;44.534;18.678;2024-01-15T10:06:45;97536.63;;;1.92;100.00
80733;BME280;70130;44.534;18.678;2024-01-15T10:09:14;97535.50;;;1.93;100.00
80733;BME280;70130;44.534;18.678;2024-01-15T10:11:44;97534.00;;;2.00;100.00
80733;BME280;70130;44.534;18.678;2024-01-15T10:14:11;97522.63;;;2.00;100.00
80733;BME280;70130;44.534;18.678;2024-01-15T10:16:40;97514.09;;;2.03;100.00
80733;BME280;70130;44.534;18.678;2024-01-15T10:19:07;97535.47;;;2.15;100.00
80733;BME280;70130;44.534;18.678;2024-01-15T10:21:33;97538.09;;;2.06;100.00
80733;BME280;70130;44.534;18.678;2024-01-15T10:24:00;97547.56;;;2.07;100.00
80733;BME280;70130;44.534;18.678;2024-01-15T10:26:26;97555.47;;;1.99;100.00
80733;BME280;70130;44.534;18.678;2024-01-15T10:28:52;97543.09;;;1.86;100.00
80733;BME280;70130;44.534;18.678;2024-01-15T10:31:18;97533.59;;;1.85;100.00
80733;BME280;70130;44.534;18.678;2024-01-15T10:33:49;97517.97;;;1.74;100.00
80733;BME280;70130;44.534;18.678;2024-01-15T10:36:17;97518.16;;;1.78;100.00
80733;BME280;70130;44.534;18.678;2024-01-15T10:38:44;97520.63;;;1.74;100.00
80733;BME280;70130;44.534;18.678;2024-01-15T10:41:10;97496.81;;;1.74;100.00
80733;BME280;70130;44.534;18.678;2024-01-15T10:43:36;97486.19;;;1.66;100.00
80733;BME280;70130;44.534;18.678;2024-01-15T10:46:02;97492.97;;;1.81;100.00
80733;BME280;70130;44.534;18.678;2024-01-15T10:48:28;97483.25;;;1.67;100.00
80733;BME280;70130;44.534;18.678;2024-01-15T10:50:57;97486.38;;;1.69;100.00
80733;BME280;70130;44.534;18.678;2024-01-15T10:53:24;97474.22;;;1.68;100.00
80733;BME280;70130;44.534;18.678;2024-01-15T10:55:50;97496.16;;;1.91;100.00
80733;BME280;70130;44.534;18.678;2024-01-15T10:58:20;97486.81;;;1.94;100.00
80733;BME280;70130;44.534;18.678;2024-01-15T11:00:46;97469.81;;;1.86;100.00
80733;BME280;70130;44.534;18.678;2024-01-15T11:03:12;97473.25;;;1.87;100.00
80733;BME280;70130;44.534;18.678;2024-01-15T11:05:41;97469.34;;;1.84;100.00
80733;BME280;70130;44.534;18.678;2024-01-15T11:08:07;97478.53;;;1.87;100.00
80733;BME280;70130;44.534;18.678;2024-01-15T11:13:22;97459.94;;;1.69;100.00
80733;BME280;70130;44.534;18.678;2024-01-15T11:16:06;97451.53;;;1.67;100.00
80733;BME280;70130;44.534;18.678;2024-01-15T11:18:36;97440.59;;;1.60;100.00
80733;BME280;70130;44.534;18.678;2024-01-15T11:23:44;97438.25;;;1.59;100.00
80733;BME280;70130;44.534;18.678;2024-01-15T11:26:36;97437.03;;;1.65;100.00
80733;BME280;70130;44.534;18.678;2024-01-15T11:29:06;97423.94;;;1.60;100.00
80733;BME280;70130;44.534;18.678;2024-01-15T11:34:08;97436.78;;;1.75;100.00
80733;BME280;70130;44.534;18.678;2024-01-15T11:37:01;97438.22;;;1.81;100.00
80733;BME280;70130;44.534;18.678;2024-01-15T11:41:55;97423.69;;;1.70;100.00
80733;BME280;70130;44.534;18.678;2024-01-15T11:44:21;97426.72;;;1.86;100.00
80733;BME280;70130;44.534;18.678;2024-01-15T11:47:04;97427.66;;;1.90;100.00
80733;BME280;70130;44.534;18.678;2024-01-15T11:52:18;97417.44;;;1.97;100.00
80733;BME280;70130;44.534;18.678;2024-01-15T11:57:27;97400.03;;;2.13;100.00
80733;BME280;70130;44.534;18.678;2024-01-15T11:59:54;97394.16;;;2.16;100.00
80733;BME280;70130;44.534;18.678;2024-01-15T12:02:20;97397.16;;;2.32;100.00
80733;BME280;70130;44.534;18.678;2024-01-15T12:04:45;97390.59;;;2.21;100.00
80733;BME280;70130;44.534;18.678;2024-01-15T12:07:11;97388.56;;;2.26;100.00
80733;BME280;70130;44.534;18.678;2024-01-15T12:09:43;97369.56;;;2.15;100.00
80733;BME280;70130;44.534;18.678;2024-01-15T12:12:11;97374.06;;;2.24;100.00
80733;BME280;70130;44.534;18.678;2024-01-15T12:14:40;97381.09;;;2.28;100.00
80733;BME280;70130;44.534;18.678;2024-01-15T12:17:06;97381.09;;;2.28;100.00
80733;BME280;70130;44.534;18.678;2024-01-15T12:19:32;97377.66;;;2.28;100.00
80733;BME280;70130;44.534;18.678;2024-01-15T12:21:57;97378.94;;;2.30;100.00
80733;BME280;70130;44.534;18.678;2024-01-15T12:24:23;97386.09;;;2.38;100.00
80733;BME280;70130;44.534;18.678;2024-01-15T12:26:48;97382.38;;;2.39;100.00
80733;BME280;70130;44.534;18.678;2024-01-15T12:29:17;97378.00;;;2.43;100.00
80733;BME280;70130;44.534;18.678;2024-01-15T12:31:46;97373.03;;;2.50;100.00
80733;BME280;70130;44.534;18.678;2024-01-15T12:34:11;97361.81;;;2.53;100.00
80733;BME280;70130;44.534;18.678;2024-01-15T12:36:37;97351.56;;;2.60;100.00
80733;BME280;70130;44.534;18.678;2024-01-15T12:39:02;97346.41;;;2.73;100.00
80733;BME280;70130;44.534;18.678;2024-01-15T12:41:28;97348.28;;;2.81;100.00
80733;BME280;70130;44.534;18.678;2024-01-15T12:43:54;97328.78;;;2.85;100.00
80733;BME280;70130;44.534;18.678;2024-01-15T12:46:19;97305.41;;;2.79;100.00
80733;BME280;70130;44.534;18.678;2024-01-15T12:48:45;97312.75;;;2.90;100.00
80733;BME280;70130;44.534;18.678;2024-01-15T12:51:10;97316.75;;;2.96;100.00
80733;BME280;70130;44.534;18.678;2024-01-15T12:53:36;97317.72;;;3.00;100.00
80733;BME280;70130;44.534;18.678;2024-01-15T12:56:02;97295.25;;;2.98;100.00
80733;BME280;70130;44.534;18.678;2024-01-15T12:58:27;97305.81;;;3.07;100.00
80733;BME280;70130;44.534;18.678;2024-01-15T13:00:53;97307.09;;;3.09;100.00
80733;BME280;70130;44.534;18.678;2024-01-15T13:03:22;97309.13;;;3.03;100.00
80733;BME280;70130;44.534;18.678;2024-01-15T13:05:48;97311.16;;;2.98;100.00
80733;BME280;70130;44.534;18.678;2024-01-15T13:08:14;97297.63;;;2.91;100.00
80733;BME280;70130;44.534;18.678;2024-01-15T13:10:40;97295.72;;;3.00;100.00
80733;BME280;70130;44.534;18.678;2024-01-15T13:13:07;97309.75;;;2.92;100.00
80733;BME280;70130;44.534;18.678;2024-01-15T13:15:34;97294.97;;;2.91;100.00
80733;BME280;70130;44.534;18.678;2024-01-15T13:18:00;97278.13;;;2.95;100.00